WZZ4D1 LESO-LFBD
Flight info
| Callsign | WZZ4D1 |
|---|---|
| Flight time | 0h 30m |
| Altitude | 12000 |
| Route | BTZ DCT VAVIX |
| Aircraft | A20N/M-V/N |
Departure
| Time | 2026-05-06 20:07 |
|---|---|
| Airport | San Sebastián Airport (LESO) |
Arrival
| Time | 2026-05-06 20:38 |
|---|---|
| Airport | Bordeaux–Mérignac Airport (LFBD) |
| Time | Latitude | Longitude | Altitude | Speed | Heading |
|---|---|---|---|---|---|
| 2026-05-06 19:58 | 43.35767 | -1.79070 | 8 ft | 0 kts | 38° |
| 2026-05-06 20:04 | 43.35769 | -1.79063 | 8 ft | 1 kts | 96° |
| 2026-05-06 20:05 | 43.35753 | -1.79056 | 8 ft | 3 kts | 166° |
| 2026-05-06 20:05 | 43.35717 | -1.79033 | 8 ft | 9 kts | 132° |
| 2026-05-06 20:05 | 43.35760 | -1.78940 | 8 ft | 16 kts | 38° |
| 2026-05-06 20:05 | 43.35871 | -1.78818 | 8 ft | 23 kts | 39° |
| 2026-05-06 20:06 | 43.36004 | -1.78670 | 8 ft | 24 kts | 37° |
| 2026-05-06 20:06 | 43.36097 | -1.78571 | 8 ft | 15 kts | 39° |
| 2026-05-06 20:06 | 43.36182 | -1.78476 | 8 ft | 15 kts | 39° |
| 2026-05-06 20:06 | 43.36218 | -1.78389 | 8 ft | 7 kts | 44° |
| 2026-05-06 20:07 | 43.36211 | -1.78440 | 8 ft | 15 kts | 222° |
| 2026-05-06 20:07 | 43.35921 | -1.78765 | 8 ft | 92 kts | 219° |
| 2026-05-06 20:07 | 43.35235 | -1.79526 | 42 ft | 152 kts | 220° |
| 2026-05-06 20:07 | 43.34407 | -1.80426 | 641 ft | 153 kts | 220° |
| 2026-05-06 20:08 | 43.33667 | -1.81446 | 1302 ft | 155 kts | 232° |
| 2026-05-06 20:08 | 43.32980 | -1.82564 | 1913 ft | 159 kts | 230° |
| 2026-05-06 20:08 | 43.32223 | -1.83772 | 2362 ft | 175 kts | 230° |
| 2026-05-06 20:08 | 43.31385 | -1.85084 | 2841 ft | 192 kts | 229° |
| 2026-05-06 20:09 | 43.30463 | -1.86497 | 3331 ft | 209 kts | 229° |
| 2026-05-06 20:09 | 43.29442 | -1.88061 | 3825 ft | 229 kts | 231° |
| 2026-05-06 20:09 | 43.28498 | -1.89816 | 4727 ft | 230 kts | 240° |
| 2026-05-06 20:09 | 43.27716 | -1.91703 | 5635 ft | 231 kts | 244° |
| 2026-05-06 20:10 | 43.26967 | -1.93639 | 6521 ft | 234 kts | 245° |
| 2026-05-06 20:10 | 43.26316 | -1.95653 | 7397 ft | 234 kts | 262° |
| 2026-05-06 20:10 | 43.26495 | -1.97762 | 8262 ft | 229 kts | 300° |
| 2026-05-06 20:10 | 43.27556 | -1.99312 | 9123 ft | 229 kts | 326° |
| 2026-05-06 20:11 | 43.28983 | -2.00287 | 9958 ft | 234 kts | 340° |
| 2026-05-06 20:11 | 43.30561 | -2.00825 | 10779 ft | 239 kts | 350° |
| 2026-05-06 20:11 | 43.32243 | -2.00979 | 11484 ft | 244 kts | 359° |
| 2026-05-06 20:11 | 43.33933 | -2.00765 | 11879 ft | 248 kts | 8° |
| 2026-05-06 20:12 | 43.35627 | -2.00191 | 11997 ft | 250 kts | 16° |
| 2026-05-06 20:12 | 43.37249 | -1.99276 | 12003 ft | 251 kts | 25° |
| 2026-05-06 20:12 | 43.38748 | -1.98071 | 12000 ft | 252 kts | 33° |
| 2026-05-06 20:12 | 43.40140 | -1.96567 | 12004 ft | 253 kts | 40° |
| 2026-05-06 20:13 | 43.41365 | -1.94825 | 12011 ft | 254 kts | 48° |
| 2026-05-06 20:13 | 43.42414 | -1.92866 | 12008 ft | 255 kts | 56° |
| 2026-05-06 20:13 | 43.43269 | -1.90713 | 12008 ft | 256 kts | 64° |
| 2026-05-06 20:13 | 43.43903 | -1.88439 | 12004 ft | 257 kts | 71° |
| 2026-05-06 20:14 | 43.44312 | -1.86069 | 12012 ft | 258 kts | 79° |
| 2026-05-06 20:14 | 43.44491 | -1.83600 | 12008 ft | 258 kts | 88° |
| 2026-05-06 20:14 | 43.44423 | -1.81088 | 12017 ft | 272 kts | 95° |
| 2026-05-06 20:14 | 43.44167 | -1.78374 | 12023 ft | 303 kts | 94° |
| 2026-05-06 20:15 | 43.44199 | -1.75341 | 12025 ft | 336 kts | 83° |
| 2026-05-06 20:15 | 43.44482 | -1.72043 | 12017 ft | 358 kts | 81° |
| 2026-05-06 20:15 | 43.44831 | -1.68604 | 12012 ft | 362 kts | 80° |
| 2026-05-06 20:15 | 43.45190 | -1.65198 | 12010 ft | 363 kts | 80° |
| 2026-05-06 20:16 | 43.45563 | -1.61773 | 12010 ft | 362 kts | 78° |
| 2026-05-06 20:16 | 43.46444 | -1.58546 | 11996 ft | 358 kts | 54° |
| 2026-05-06 20:16 | 43.48186 | -1.56188 | 12019 ft | 354 kts | 34° |
| 2026-05-06 20:16 | 43.50224 | -1.54286 | 12020 ft | 353 kts | 31° |
| 2026-05-06 20:17 | 43.52306 | -1.52380 | 12024 ft | 371 kts | 32° |
| 2026-05-06 20:17 | 43.54530 | -1.50280 | 12019 ft | 394 kts | 33° |
| 2026-05-06 20:17 | 43.56777 | -1.48085 | 12016 ft | 399 kts | 34° |
| 2026-05-06 20:17 | 43.59014 | -1.45856 | 12024 ft | 399 kts | 34° |
| 2026-05-06 20:18 | 43.61256 | -1.43592 | 12026 ft | 399 kts | 34° |
| 2026-05-06 20:18 | 43.63516 | -1.41295 | 12012 ft | 399 kts | 34° |
| 2026-05-06 20:18 | 43.65721 | -1.39045 | 12018 ft | 399 kts | 34° |
| 2026-05-06 20:18 | 43.67962 | -1.36750 | 12023 ft | 399 kts | 34° |
| 2026-05-06 20:19 | 43.70193 | -1.34461 | 12024 ft | 399 kts | 35° |
| 2026-05-06 20:19 | 43.72432 | -1.32159 | 12022 ft | 399 kts | 35° |
| 2026-05-06 20:19 | 43.74648 | -1.29878 | 12020 ft | 399 kts | 35° |
| 2026-05-06 20:19 | 43.76869 | -1.27590 | 12026 ft | 399 kts | 35° |
| 2026-05-06 20:20 | 43.79118 | -1.25272 | 12022 ft | 399 kts | 35° |
| 2026-05-06 20:20 | 43.81323 | -1.22998 | 12020 ft | 399 kts | 35° |
| 2026-05-06 20:20 | 43.83545 | -1.20701 | 12017 ft | 398 kts | 35° |
| 2026-05-06 20:20 | 43.85773 | -1.18397 | 12027 ft | 397 kts | 35° |
| 2026-05-06 20:21 | 43.87984 | -1.16108 | 12029 ft | 397 kts | 35° |
| 2026-05-06 20:21 | 43.90171 | -1.13841 | 12009 ft | 397 kts | 35° |
| 2026-05-06 20:21 | 43.92375 | -1.11556 | 11997 ft | 397 kts | 35° |
| 2026-05-06 20:21 | 43.94591 | -1.09254 | 12027 ft | 397 kts | 35° |
| 2026-05-06 20:22 | 43.96820 | -1.06937 | 12015 ft | 397 kts | 35° |
| 2026-05-06 20:22 | 43.99014 | -1.04654 | 12013 ft | 397 kts | 35° |
| 2026-05-06 20:22 | 44.01234 | -1.02343 | 12009 ft | 397 kts | 35° |
| 2026-05-06 20:22 | 44.03418 | -1.00067 | 12017 ft | 397 kts | 35° |
| 2026-05-06 20:23 | 44.05624 | -0.97765 | 12017 ft | 397 kts | 35° |
| 2026-05-06 20:23 | 44.07848 | -0.95443 | 12014 ft | 397 kts | 35° |
| 2026-05-06 20:23 | 44.10054 | -0.93138 | 12019 ft | 397 kts | 35° |
| 2026-05-06 20:23 | 44.12266 | -0.90822 | 12019 ft | 397 kts | 35° |
| 2026-05-06 20:24 | 44.14455 | -0.88531 | 12014 ft | 397 kts | 35° |
| 2026-05-06 20:24 | 44.16650 | -0.86232 | 12010 ft | 397 kts | 35° |
| 2026-05-06 20:24 | 44.18874 | -0.83898 | 12009 ft | 397 kts | 35° |
| 2026-05-06 20:24 | 44.21076 | -0.81585 | 12009 ft | 397 kts | 35° |
| 2026-05-06 20:25 | 44.23278 | -0.79270 | 12008 ft | 397 kts | 35° |
| 2026-05-06 20:25 | 44.25457 | -0.76978 | 12006 ft | 397 kts | 35° |
| 2026-05-06 20:25 | 44.27674 | -0.74643 | 12004 ft | 397 kts | 35° |
| 2026-05-06 20:25 | 44.29885 | -0.72310 | 12004 ft | 397 kts | 35° |
| 2026-05-06 20:26 | 44.32061 | -0.70013 | 11904 ft | 398 kts | 35° |
| 2026-05-06 20:26 | 44.34263 | -0.67685 | 11527 ft | 393 kts | 35° |
| 2026-05-06 20:26 | 44.36420 | -0.65402 | 11042 ft | 383 kts | 35° |
| 2026-05-06 20:26 | 44.38482 | -0.63216 | 10653 ft | 364 kts | 34° |
| 2026-05-06 20:27 | 44.40425 | -0.61151 | 10098 ft | 342 kts | 34° |
| 2026-05-06 20:27 | 44.42258 | -0.59207 | 9507 ft | 323 kts | 34° |
| 2026-05-06 20:27 | 44.44001 | -0.57357 | 9005 ft | 304 kts | 34° |
| 2026-05-06 20:27 | 44.45625 | -0.55634 | 8584 ft | 286 kts | 34° |
| 2026-05-06 20:28 | 44.47155 | -0.54008 | 8091 ft | 275 kts | 34° |
| 2026-05-06 20:28 | 44.48679 | -0.52392 | 7768 ft | 270 kts | 34° |
| 2026-05-06 20:28 | 44.50187 | -0.50799 | 7642 ft | 272 kts | 34° |
| 2026-05-06 20:28 | 44.51682 | -0.49229 | 7458 ft | 272 kts | 34° |
| 2026-05-06 20:29 | 44.53203 | -0.47630 | 7203 ft | 270 kts | 34° |
| 2026-05-06 20:29 | 44.54699 | -0.46054 | 6898 ft | 270 kts | 34° |
| 2026-05-06 20:29 | 44.56206 | -0.44472 | 6491 ft | 270 kts | 34° |
| 2026-05-06 20:29 | 44.57774 | -0.43085 | 6086 ft | 267 kts | 24° |
| 2026-05-06 20:30 | 44.59452 | -0.41974 | 5680 ft | 266 kts | 21° |
| 2026-05-06 20:30 | 44.62822 | -0.39895 | 4914 ft | 262 kts | 21° |
| 2026-05-06 20:30 | 44.64476 | -0.38890 | 4610 ft | 258 kts | 21° |
| 2026-05-06 20:31 | 44.66107 | -0.37902 | 4306 ft | 254 kts | 21° |
| 2026-05-06 20:31 | 44.67708 | -0.36929 | 4003 ft | 250 kts | 21° |
| 2026-05-06 20:31 | 44.69310 | -0.35955 | 3697 ft | 248 kts | 21° |
| 2026-05-06 20:31 | 44.70923 | -0.35245 | 3379 ft | 242 kts | 1° |
| 2026-05-06 20:32 | 44.72541 | -0.35684 | 3085 ft | 234 kts | 331° |
| 2026-05-06 20:32 | 44.73757 | -0.37103 | 2967 ft | 223 kts | 314° |
| 2026-05-06 20:32 | 44.74780 | -0.38741 | 2962 ft | 224 kts | 311° |
| 2026-05-06 20:32 | 44.75760 | -0.40452 | 2961 ft | 225 kts | 307° |
| 2026-05-06 20:33 | 44.76560 | -0.42367 | 2960 ft | 227 kts | 296° |
| 2026-05-06 20:33 | 44.77139 | -0.44418 | 2962 ft | 228 kts | 292° |
| 2026-05-06 20:33 | 44.77641 | -0.46522 | 2956 ft | 224 kts | 290° |
| 2026-05-06 20:33 | 44.78079 | -0.48566 | 2944 ft | 209 kts | 289° |
| 2026-05-06 20:34 | 44.78464 | -0.50439 | 2923 ft | 197 kts | 289° |
| 2026-05-06 20:34 | 44.78847 | -0.52298 | 2715 ft | 195 kts | 289° |
| 2026-05-06 20:34 | 44.79224 | -0.54121 | 2484 ft | 190 kts | 290° |
| 2026-05-06 20:34 | 44.79581 | -0.55848 | 2285 ft | 182 kts | 290° |
| 2026-05-06 20:35 | 44.79936 | -0.57553 | 2005 ft | 178 kts | 290° |
| 2026-05-06 20:35 | 44.80276 | -0.59187 | 1741 ft | 170 kts | 290° |
| 2026-05-06 20:35 | 44.80593 | -0.60715 | 1519 ft | 155 kts | 290° |
| 2026-05-06 20:35 | 44.80882 | -0.62098 | 1300 ft | 140 kts | 290° |
| 2026-05-06 20:36 | 44.81145 | -0.63350 | 1103 ft | 128 kts | 289° |
| 2026-05-06 20:36 | 44.81395 | -0.64539 | 954 ft | 128 kts | 289° |
| 2026-05-06 20:36 | 44.81647 | -0.65737 | 796 ft | 127 kts | 289° |
| 2026-05-06 20:36 | 44.81897 | -0.66930 | 632 ft | 127 kts | 288° |
| 2026-05-06 20:37 | 44.82147 | -0.68122 | 458 ft | 127 kts | 288° |
| 2026-05-06 20:37 | 44.82400 | -0.69315 | 277 ft | 126 kts | 287° |
| 2026-05-06 20:37 | 44.82650 | -0.70484 | 161 ft | 120 kts | 286° |
| 2026-05-06 20:37 | 44.82840 | -0.71412 | 165 ft | 75 kts | 287° |
| 2026-05-06 20:38 | 44.82951 | -0.71938 | 161 ft | 36 kts | 286° |
| 2026-05-06 20:38 | 44.83021 | -0.72133 | 160 ft | 14 kts | 1° |
| 2026-05-06 20:38 | 44.83112 | -0.72101 | 160 ft | 13 kts | 18° |
| 2026-05-06 20:38 | 44.83161 | -0.72008 | 160 ft | 13 kts | 95° |
| 2026-05-06 20:39 | 44.83139 | -0.71881 | 160 ft | 13 kts | 111° |
| 2026-05-06 20:39 | 44.83109 | -0.71750 | 161 ft | 15 kts | 104° |
| 2026-05-06 20:39 | 44.83080 | -0.71600 | 163 ft | 16 kts | 107° |
| 2026-05-06 20:39 | 44.83044 | -0.71430 | 164 ft | 18 kts | 105° |
| 2026-05-06 20:40 | 44.83008 | -0.71259 | 166 ft | 18 kts | 107° |
| 2026-05-06 20:40 | 44.82969 | -0.71086 | 165 ft | 19 kts | 107° |
| 2026-05-06 20:40 | 44.82931 | -0.70897 | 162 ft | 21 kts | 104° |
| 2026-05-06 20:40 | 44.82887 | -0.70679 | 156 ft | 24 kts | 106° |
| 2026-05-06 20:41 | 44.82837 | -0.70444 | 157 ft | 24 kts | 106° |
| 2026-05-06 20:41 | 44.82797 | -0.70255 | 163 ft | 12 kts | 106° |
| 2026-05-06 20:41 | 44.82824 | -0.70168 | 166 ft | 9 kts | 41° |
| 2026-05-06 20:41 | 44.82820 | -0.70056 | 168 ft | 15 kts | 107° |
| 2026-05-06 20:42 | 44.82790 | -0.69917 | 171 ft | 14 kts | 105° |
| 2026-05-06 20:42 | 44.82772 | -0.69825 | 173 ft | 5 kts | 103° |
| 2026-05-06 20:42 | 44.82802 | -0.69790 | 172 ft | 7 kts | 17° |
| 2026-05-06 20:42 | 44.82844 | -0.69771 | 171 ft | 0 kts | 17° |